Time;durP1;ratioP1;P1;durP2;ratioP2;P2;SDS_P1;SDS_P2;PMS_P1;PMS_P2;Temp;Humidity;BMP_temperature;BMP_pressure;BME280_temperature;BME280_humidity;BME280_pressure;Samples;Min_cycle;Max_cycle;Signal;HPM_P1;HPM_P2
2023/12/21 00:01:36;;;;;;;20.10;6.00;;;9.00;99.90;;;;;;5089077;28;20097;-48
2023/12/21 00:04:02;;;;;;;16.10;5.10;;;8.90;99.90;;;;;;5091556;28;20036;-45
2023/12/21 00:06:28;;;;;;;15.55;4.88;;;8.90;99.90;;;;;;5088358;28;20047;-45
2023/12/21 00:08:54;;;;;;;24.23;5.90;;;8.80;99.90;;;;;;5084990;28;20378;-45
2023/12/21 00:11:20;;;;;;;23.02;5.30;;;8.90;99.90;;;;;;5082816;28;20148;-45
2023/12/21 00:13:45;;;;;;;18.13;5.57;;;8.90;99.90;;;;;;5087913;28;20042;-46
2023/12/21 00:16:12;;;;;;;21.95;5.85;;;8.90;99.90;;;;;;5088516;28;20032;-45
2023/12/21 00:18:38;;;;;;;24.10;6.35;;;8.90;99.90;;;;;;5088300;28;20138;-45
2023/12/21 00:21:03;;;;;;;19.08;5.93;;;8.90;99.90;;;;;;5091538;28;20466;-45
2023/12/21 00:23:29;;;;;;;18.52;6.65;;;8.90;99.90;;;;;;5085781;28;20573;-46
2023/12/21 00:25:54;;;;;;;21.63;6.85;;;8.90;99.90;;;;;;5090619;28;20039;-46
2023/12/21 00:28:20;;;;;;;29.50;7.03;;;8.90;99.90;;;;;;5089656;28;20044;-47
2023/12/21 00:30:46;;;;;;;28.15;6.70;;;8.90;99.90;;;;;;5092239;28;20078;-45
2023/12/21 00:33:11;;;;;;;23.48;6.55;;;8.90;99.90;;;;;;5090577;28;20047;-46
2023/12/21 00:35:37;;;;;;;21.38;6.75;;;9.00;99.90;;;;;;5081894;28;20040;-45
2023/12/21 00:38:03;;;;;;;21.80;7.28;;;8.90;99.90;;;;;;5085947;28;20044;-45
2023/12/21 00:40:28;;;;;;;17.58;5.97;;;8.90;99.90;;;;;;5086264;28;20068;-44
2023/12/21 00:42:54;;;;;;;22.20;7.82;;;8.90;99.90;;;;;;5084306;28;20036;-45
2023/12/21 00:45:20;;;;;;;23.98;7.18;;;8.90;99.90;;;;;;5081357;28;20429;-46
2023/12/21 00:47:45;;;;;;;19.75;6.90;;;8.90;99.90;;;;;;5067892;28;20081;-44
2023/12/21 00:50:11;;;;;;;21.48;6.75;;;9.00;99.90;;;;;;5083249;28;20036;-47
2023/12/21 00:52:37;;;;;;;24.25;6.75;;;9.00;99.90;;;;;;5083723;28;20105;-45
2023/12/21 00:55:03;;;;;;;25.83;7.28;;;8.90;99.90;;;;;;5081118;28;20032;-45
2023/12/21 00:57:29;;;;;;;19.83;7.43;;;8.90;99.90;;;;;;5085420;28;20413;-48
2023/12/21 00:59:54;;;;;;;21.58;6.70;;;9.00;99.90;;;;;;5087617;28;20040;-44
2023/12/21 01:02:20;;;;;;;19.20;6.43;;;8.90;99.90;;;;;;5085682;28;20049;-45
2023/12/21 01:04:46;;;;;;;23.45;7.50;;;8.90;99.90;;;;;;5088652;28;20087;-46
2023/12/21 01:07:11;;;;;;;16.02;6.35;;;8.90;99.90;;;;;;5085009;28;20044;-46
2023/12/21 01:09:38;;;;;;;19.58;6.68;;;8.90;99.90;;;;;;5084705;28;20032;-46
2023/12/21 01:12:05;;;;;;;21.55;6.53;;;8.90;99.90;;;;;;5087167;28;20409;-46
2023/12/21 01:14:31;;;;;;;25.00;6.70;;;9.00;99.90;;;;;;5084681;28;20465;-45
2023/12/21 01:16:57;;;;;;;21.25;6.85;;;8.90;99.90;;;;;;5079706;28;20089;-45
2023/12/21 01:19:22;;;;;;;26.67;6.80;;;9.00;99.90;;;;;;5080928;28;20131;-46
2023/12/21 01:21:48;;;;;;;18.65;6.00;;;8.90;99.90;;;;;;5078546;28;20109;-46
2023/12/21 01:24:14;;;;;;;25.27;6.93;;;8.90;99.90;;;;;;5081977;28;20040;-46
2023/12/21 01:26:40;;;;;;;26.58;7.38;;;8.90;99.90;;;;;;5080001;28;20767;-46
2023/12/21 01:29:05;;;;;;;24.50;6.68;;;8.90;99.90;;;;;;5080273;28;20036;-45
2023/12/21 01:31:31;;;;;;;23.70;6.43;;;9.00;99.90;;;;;;5082659;28;20043;-45
2023/12/21 01:33:57;;;;;;;18.33;6.38;;;9.00;99.90;;;;;;5081377;28;20082;-44
2023/12/21 01:36:22;;;;;;;20.95;6.00;;;9.00;99.90;;;;;;5083870;28;20424;-45
2023/12/21 01:38:48;;;;;;;26.02;6.85;;;9.00;99.90;;;;;;5085568;28;20055;-45
2023/12/21 01:41:13;;;;;;;22.15;6.35;;;8.90;99.90;;;;;;5083135;28;20793;-45
2023/12/21 01:43:39;;;;;;;22.35;6.10;;;8.90;99.90;;;;;;5082280;28;20047;-45
2023/12/21 01:46:05;;;;;;;21.63;6.03;;;8.90;99.90;;;;;;5083083;28;20034;-45
2023/12/21 01:48:31;;;;;;;26.77;6.07;;;8.90;99.90;;;;;;5083791;28;20040;-45
2023/12/21 01:50:59;;;;;;;19.50;5.95;;;9.00;99.90;;;;;;5082370;28;20040;-45
2023/12/21 01:53:25;;;;;;;21.58;6.85;;;9.00;99.90;;;;;;5084355;28;20425;-46
2023/12/21 01:55:50;;;;;;;21.15;5.50;;;9.00;99.90;;;;;;5085008;28;20036;-45
2023/12/21 01:58:17;;;;;;;18.15;5.40;;;9.00;99.90;;;;;;5086152;28;20431;-46
2023/12/21 02:00:43;;;;;;;18.17;5.88;;;9.00;99.90;;;;;;5086736;28;20036;-46
2023/12/21 02:03:08;;;;;;;18.13;5.30;;;9.00;99.90;;;;;;5086806;28;20028;-46
2023/12/21 02:05:34;;;;;;;18.55;5.35;;;9.00;99.90;;;;;;5085406;28;20101;-46
2023/12/21 02:08:00;;;;;;;19.10;5.50;;;9.00;99.90;;;;;;5080863;28;20127;-45
2023/12/21 02:10:26;;;;;;;19.27;5.00;;;9.00;99.90;;;;;;5085446;28;20067;-45
2023/12/21 02:12:51;;;;;;;18.77;5.25;;;9.00;99.90;;;;;;5085758;28;20409;-46
2023/12/21 02:15:17;;;;;;;20.42;4.85;;;9.00;99.90;;;;;;5085743;28;20101;-46
2023/12/21 02:17:46;;;;;;;17.00;4.82;;;9.00;99.90;;;;;;5082338;28;20063;-46
2023/12/21 02:20:12;;;;;;;17.80;5.65;;;8.90;99.90;;;;;;5083288;28;20051;-47
2023/12/21 02:22:41;;;;;;;31.38;6.07;;;9.00;99.90;;;;;;5065304;28;20044;-45
2023/12/21 02:25:07;;;;;;;17.98;5.10;;;9.00;99.90;;;;;;5082313;28;20127;-47
2023/12/21 02:27:33;;;;;;;22.08;5.93;;;9.00;99.90;;;;;;5082740;28;20041;-49
2023/12/21 02:29:59;;;;;;;19.73;5.72;;;9.00;99.90;;;;;;5082480;28;20051;-46
2023/12/21 02:32:25;;;;;;;18.27;4.82;;;9.00;99.90;;;;;;5079896;28;20342;-46
2023/12/21 02:34:50;;;;;;;20.60;5.70;;;9.00;99.90;;;;;;5084560;28;20512;-45
2023/12/21 02:37:18;;;;;;;22.00;5.05;;;9.00;99.90;;;;;;5083674;28;20047;-45
2023/12/21 02:39:43;;;;;;;19.25;5.10;;;9.00;99.90;;;;;;5084296;28;20040;-46
2023/12/21 02:42:09;;;;;;;19.65;5.43;;;9.00;99.90;;;;;;5082383;28;20093;-45
2023/12/21 02:44:34;;;;;;;14.68;4.75;;;9.00;99.90;;;;;;5081883;28;20097;-46
2023/12/21 02:47:00;;;;;;;22.42;5.20;;;9.00;99.90;;;;;;5084178;28;20040;-45
2023/12/21 02:49:26;;;;;;;23.90;6.07;;;9.00;99.90;;;;;;5083193;28;20538;-45
2023/12/21 02:51:51;;;;;;;24.92;5.95;;;9.00;99.90;;;;;;5084266;28;20044;-46
2023/12/21 02:54:17;;;;;;;24.30;6.13;;;8.90;99.90;;;;;;5082844;28;20634;-45
2023/12/21 02:56:42;;;;;;;16.65;6.55;;;9.00;99.90;;;;;;5081813;28;20051;-46
2023/12/21 02:59:08;;;;;;;27.35;7.20;;;8.90;99.90;;;;;;5082326;28;20036;-45
2023/12/21 03:01:34;;;;;;;23.25;7.03;;;8.90;99.90;;;;;;5083258;28;20075;-46
2023/12/21 03:04:02;;;;;;;22.00;7.55;;;8.90;99.90;;;;;;5081118;28;20040;-45
2023/12/21 03:06:27;;;;;;;21.98;7.85;;;8.90;99.90;;;;;;5087167;28;20043;-44
2023/12/21 03:08:53;;;;;;;22.85;8.93;;;9.00;99.90;;;;;;5084668;28;20111;-45
2023/12/21 03:11:19;;;;;;;29.33;9.40;;;8.90;99.90;;;;;;5080946;28;20109;-46
2023/12/21 03:13:44;;;;;;;20.88;9.32;;;9.00;99.90;;;;;;5083910;28;20044;-45
2023/12/21 03:16:10;;;;;;;18.05;9.05;;;8.90;99.90;;;;;;5081389;28;20759;-46
2023/12/21 03:18:36;;;;;;;22.30;8.60;;;9.00;99.90;;;;;;5083220;28;20028;-46
2023/12/21 03:21:02;;;;;;;28.45;9.02;;;8.90;99.90;;;;;;5083257;28;20036;-46
2023/12/21 03:23:28;;;;;;;20.00;8.70;;;9.00;99.90;;;;;;5083370;28;20546;-46
2023/12/21 03:25:53;;;;;;;14.93;7.80;;;8.90;99.90;;;;;;5081417;28;20044;-45
2023/12/21 03:28:20;;;;;;;20.15;9.05;;;8.90;99.90;;;;;;5082199;28;20040;-45
2023/12/21 03:30:45;;;;;;;18.17;9.27;;;9.00;99.90;;;;;;5078348;28;20489;-45
2023/12/21 03:33:11;;;;;;;20.92;9.68;;;8.90;99.90;;;;;;5082173;28;20050;-46
2023/12/21 03:35:36;;;;;;;24.83;9.98;;;9.00;99.90;;;;;;5079709;28;20426;-45
2023/12/21 03:38:02;;;;;;;19.05;9.95;;;9.00;99.90;;;;;;5077183;28;20040;-45
2023/12/21 03:40:28;;;;;;;25.63;10.45;;;8.90;99.90;;;;;;5079835;28;20405;-46
2023/12/21 03:42:54;;;;;;;23.73;10.55;;;8.90;99.90;;;;;;5081970;28;20033;-45
2023/12/21 03:45:20;;;;;;;24.33;10.60;;;8.90;99.90;;;;;;5082215;28;20047;-46
2023/12/21 03:47:45;;;;;;;21.30;9.88;;;9.00;99.90;;;;;;5080983;28;20141;-46
2023/12/21 03:50:12;;;;;;;23.88;10.38;;;8.90;99.90;;;;;;5082671;28;20032;-44
2023/12/21 03:52:37;;;;;;;21.08;9.98;;;8.90;99.90;;;;;;5082078;28;20101;-44
2023/12/21 03:55:03;;;;;;;19.63;10.02;;;8.90;99.90;;;;;;5083560;28;20048;-45
2023/12/21 03:57:29;;;;;;;19.85;9.25;;;8.90;99.90;;;;;;5083420;28;20047;-46
2023/12/21 03:59:55;;;;;;;23.00;9.98;;;8.90;99.90;;;;;;5062299;28;20043;-46
2023/12/21 04:02:20;;;;;;;20.23;9.70;;;9.00;99.90;;;;;;5065917;28;20138;-45
2023/12/21 04:04:46;;;;;;;18.70;10.30;;;8.90;99.90;;;;;;5085658;28;20200;-45
2023/12/21 04:07:11;;;;;;;18.42;10.18;;;9.00;99.90;;;;;;5082681;28;20072;-44
2023/12/21 04:09:38;;;;;;;22.70;10.60;;;9.00;99.90;;;;;;5086591;28;20043;-45
2023/12/21 04:12:04;;;;;;;22.88;9.30;;;8.90;99.90;;;;;;5063025;28;20082;-46
2023/12/21 04:14:30;;;;;;;21.60;10.23;;;9.00;99.90;;;;;;5081726;28;20091;-46
2023/12/21 04:16:55;;;;;;;20.23;10.43;;;9.00;99.90;;;;;;5084067;28;20495;-45
2023/12/21 04:19:21;;;;;;;18.52;9.57;;;9.00;99.90;;;;;;5083221;28;20044;-46
2023/12/21 04:21:47;;;;;;;21.83;9.93;;;9.00;99.90;;;;;;5066316;28;20421;-45
2023/12/21 04:24:12;;;;;;;20.35;10.02;;;8.90;99.90;;;;;;5088612;28;20039;-46
2023/12/21 04:26:39;;;;;;;20.88;9.55;;;9.00;99.90;;;;;;5090057;28;20032;-45
2023/12/21 04:29:04;;;;;;;22.00;9.10;;;9.00;99.90;;;;;;5091094;28;20122;-45
2023/12/21 04:31:30;;;;;;;18.02;9.63;;;9.00;99.90;;;;;;5086152;28;20123;-44
2023/12/21 04:33:55;;;;;;;18.08;9.40;;;8.90;99.90;;;;;;5084864;28;20048;-44
2023/12/21 04:36:21;;;;;;;15.02;8.75;;;9.00;99.90;;;;;;5084394;28;20098;-46
2023/12/21 04:38:47;;;;;;;22.85;9.93;;;9.00;99.90;;;;;;5082974;28;20050;-47
2023/12/21 04:41:12;;;;;;;22.63;10.18;;;8.90;99.90;;;;;;5084783;28;20052;-45
2023/12/21 04:43:38;;;;;;;18.05;8.95;;;9.00;99.90;;;;;;5082676;28;20097;-45
2023/12/21 04:46:04;;;;;;;18.35;9.30;;;8.90;99.90;;;;;;5083828;28;20039;-45
2023/12/21 04:48:30;;;;;;;18.90;9.55;;;9.00;99.90;;;;;;5087748;28;20047;-45
2023/12/21 04:50:56;;;;;;;18.42;8.88;;;8.90;99.90;;;;;;5085190;28;20032;-45
2023/12/21 04:53:21;;;;;;;27.60;9.85;;;8.90;99.90;;;;;;5084878;28;20040;-47
2023/12/21 04:55:48;;;;;;;19.27;9.48;;;9.00;99.90;;;;;;5084257;28;20392;-46
2023/12/21 04:58:14;;;;;;;20.40;9.18;;;9.00;99.90;;;;;;5083538;28;20462;-45
2023/12/21 05:00:44;;;;;;;17.23;9.38;;;9.00;99.90;;;;;;5081981;28;20119;-44
2023/12/21 05:03:10;;;;;;;17.92;9.50;;;9.00;99.90;;;;;;5083643;28;20079;-48
2023/12/21 05:05:35;;;;;;;18.85;8.48;;;9.00;99.90;;;;;;5085983;28;20117;-45
2023/12/21 05:08:01;;;;;;;21.20;8.25;;;9.00;99.90;;;;;;5081398;28;20032;-45
2023/12/21 05:10:27;;;;;;;26.23;9.25;;;9.00;99.90;;;;;;5085021;28;20076;-45
2023/12/21 05:12:52;;;;;;;18.10;8.57;;;9.00;99.90;;;;;;5087873;28;20032;-46
2023/12/21 05:15:18;;;;;;;16.92;8.20;;;9.00;99.90;;;;;;5083016;28;20424;-46
2023/12/21 05:17:44;;;;;;;21.63;8.98;;;9.00;99.90;;;;;;5083961;28;20039;-44
2023/12/21 05:20:10;;;;;;;18.45;8.20;;;9.00;99.90;;;;;;5083804;28;20040;-45
2023/12/21 05:22:35;;;;;;;18.52;8.15;;;9.00;99.90;;;;;;5086445;28;20047;-45
2023/12/21 05:25:01;;;;;;;20.77;8.43;;;9.10;99.90;;;;;;5082951;28;20448;-44
2023/12/21 05:27:27;;;;;;;21.92;8.02;;;9.00;99.90;;;;;;5078652;28;20033;-44
2023/12/21 05:29:52;;;;;;;18.77;7.68;;;9.10;99.90;;;;;;5084071;28;20130;-44
2023/12/21 05:32:18;;;;;;;21.45;8.10;;;9.10;99.90;;;;;;5083996;28;20048;-45
2023/12/21 05:34:43;;;;;;;18.45;7.43;;;9.00;99.90;;;;;;5079057;28;20109;-46
2023/12/21 05:37:09;;;;;;;22.35;7.22;;;9.00;99.90;;;;;;5083038;28;20556;-45
2023/12/21 05:39:35;;;;;;;17.52;6.95;;;9.10;99.90;;;;;;5083945;28;20119;-46
2023/12/21 05:42:01;;;;;;;18.42;6.93;;;9.10;99.90;;;;;;5083479;28;20502;-44
2023/12/21 05:44:27;;;;;;;13.82;6.35;;;9.10;99.90;;;;;;5077457;28;20114;-45
2023/12/21 05:46:53;;;;;;;22.30;7.32;;;9.00;99.90;;;;;;5083475;28;20079;-49
2023/12/21 05:49:19;;;;;;;17.48;6.25;;;9.00;99.90;;;;;;5085761;28;20051;-44
2023/12/21 05:51:48;;;;;;;18.33;5.97;;;9.10;99.90;;;;;;5078995;28;20036;-45
2023/12/21 05:54:14;;;;;;;15.25;6.00;;;9.10;99.90;;;;;;5077704;28;20032;-45
2023/12/21 05:56:40;;;;;;;12.60;5.93;;;9.00;99.90;;;;;;5082709;28;20048;-44
2023/12/21 05:59:06;;;;;;;16.80;5.93;;;9.00;99.90;;;;;;5062937;28;20072;-45
2023/12/21 06:01:33;;;;;;;16.98;5.32;;;9.10;99.90;;;;;;5082038;28;20094;-45
2023/12/21 06:03:58;;;;;;;16.60;5.18;;;9.10;99.90;;;;;;5085768;28;20036;-45
2023/12/21 06:06:24;;;;;;;16.10;4.85;;;9.10;99.90;;;;;;5081410;28;20405;-45
2023/12/21 06:08:49;;;;;;;15.77;5.32;;;9.00;99.90;;;;;;5080900;28;20040;-45
2023/12/21 06:11:15;;;;;;;15.75;5.22;;;9.00;99.90;;;;;;5079879;28;20043;-45
2023/12/21 06:13:41;;;;;;;16.10;5.00;;;9.10;99.90;;;;;;5081925;28;20469;-46
2023/12/21 06:16:11;;;;;;;16.50;5.25;;;9.10;99.90;;;;;;5087624;28;20043;-48
2023/12/21 06:18:37;;;;;;;18.88;5.07;;;9.10;99.90;;;;;;5083144;28;20054;-46
2023/12/21 06:21:03;;;;;;;15.27;5.03;;;9.10;99.90;;;;;;5083210;28;20048;-44
2023/12/21 06:23:29;;;;;;;13.77;4.47;;;9.10;99.90;;;;;;5081796;28;20040;-44
2023/12/21 06:25:55;;;;;;;19.70;5.05;;;9.10;99.90;;;;;;5083025;28;20120;-46
2023/12/21 06:28:21;;;;;;;13.13;4.57;;;9.10;99.90;;;;;;5080045;28;20036;-45
2023/12/21 06:30:47;;;;;;;11.68;4.38;;;9.20;99.90;;;;;;5081727;28;20119;-45
2023/12/21 06:33:13;;;;;;;13.90;4.60;;;9.10;99.90;;;;;;5082233;28;20188;-46
2023/12/21 06:35:38;;;;;;;12.30;4.03;;;9.20;99.90;;;;;;5065259;28;20059;-47
2023/12/21 06:38:04;;;;;;;12.52;4.00;;;9.20;99.90;;;;;;5082010;28;20048;-49
2023/12/21 06:40:30;;;;;;;13.02;4.43;;;9.20;99.90;;;;;;5081716;28;20035;-46
2023/12/21 06:42:55;;;;;;;10.98;4.38;;;9.10;99.90;;;;;;5081111;28;21855;-48
2023/12/21 06:45:21;;;;;;;17.58;5.15;;;9.10;99.90;;;;;;5081632;28;20066;-45
2023/12/21 06:47:46;;;;;;;13.55;4.80;;;9.20;99.90;;;;;;5086029;28;20488;-46
2023/12/21 06:50:12;;;;;;;13.88;4.57;;;9.20;99.90;;;;;;5083025;28;20040;-45
2023/12/21 06:52:38;;;;;;;10.68;4.13;;;9.20;99.90;;;;;;5083522;28;20121;-44
2023/12/21 06:55:04;;;;;;;13.30;4.40;;;9.20;99.90;;;;;;5085837;28;20123;-45
2023/12/21 06:57:31;;;;;;;11.95;4.30;;;9.20;99.90;;;;;;5081363;28;20044;-46
2023/12/21 06:59:56;;;;;;;10.65;4.60;;;9.20;99.90;;;;;;5078567;28;20399;-45
2023/12/21 07:02:22;;;;;;;12.88;4.22;;;9.20;99.90;;;;;;5080109;28;20126;-45
2023/12/21 07:04:47;;;;;;;10.25;4.45;;;9.30;99.90;;;;;;5083499;28;20032;-45
2023/12/21 07:07:13;;;;;;;9.45;4.78;;;9.20;99.90;;;;;;5083558;28;20094;-47
2023/12/21 07:09:39;;;;;;;13.35;5.45;;;9.20;99.90;;;;;;5084690;28;20508;-45
2023/12/21 07:12:05;;;;;;;15.05;5.60;;;9.20;99.90;;;;;;5082269;28;20482;-46
2023/12/21 07:14:31;;;;;;;13.07;5.50;;;9.20;99.90;;;;;;5063138;28;20032;-45
2023/12/21 07:16:56;;;;;;;13.35;4.85;;;9.20;99.90;;;;;;5087656;28;20035;-46
2023/12/21 07:19:22;;;;;;;10.85;5.10;;;9.20;99.90;;;;;;5083787;28;20036;-45
2023/12/21 07:21:48;;;;;;;12.50;5.10;;;9.20;99.90;;;;;;5081562;28;20043;-48
2023/12/21 07:24:13;;;;;;;15.57;4.75;;;9.20;99.90;;;;;;5081356;28;20059;-47
2023/12/21 07:26:39;;;;;;;16.60;4.60;;;9.20;99.90;;;;;;5083559;28;20431;-44
2023/12/21 07:29:04;;;;;;;10.45;3.60;;;9.20;99.90;;;;;;5081685;28;21029;-47
2023/12/21 07:31:30;;;;;;;10.88;3.80;;;9.20;99.90;;;;;;5085356;28;20040;-47
2023/12/21 07:33:56;;;;;;;10.13;3.58;;;9.20;99.90;;;;;;5080982;28;20127;-48
2023/12/21 07:36:21;;;;;;;10.05;3.50;;;9.20;99.90;;;;;;5080861;28;20044;-45
2023/12/21 07:38:47;;;;;;;8.57;3.50;;;9.20;99.90;;;;;;5080476;28;20044;-45
2023/12/21 07:41:13;;;;;;;7.90;3.35;;;9.20;99.90;;;;;;5082588;28;20473;-47
2023/12/21 07:43:39;;;;;;;5.90;3.03;;;9.10;99.90;;;;;;5082111;28;20036;-46
2023/12/21 07:46:05;;;;;;;7.80;3.30;;;9.20;99.90;;;;;;5084451;28;20046;-44
2023/12/21 07:48:32;;;;;;;11.07;3.75;;;9.20;99.90;;;;;;5082631;28;20040;-46
2023/12/21 07:50:57;;;;;;;13.38;3.97;;;9.20;99.90;;;;;;5082836;28;20549;-46
2023/12/21 07:53:23;;;;;;;11.40;3.95;;;9.20;99.90;;;;;;5080108;28;20069;-48
2023/12/21 07:55:48;;;;;;;9.10;2.75;;;9.20;99.90;;;;;;5083255;28;20041;-45
2023/12/21 07:58:14;;;;;;;10.18;3.15;;;9.20;99.90;;;;;;5065459;28;20044;-46
2023/12/21 08:00:40;;;;;;;7.65;2.67;;;9.20;99.90;;;;;;5081392;28;20044;-46
2023/12/21 08:03:05;;;;;;;10.43;3.53;;;9.30;99.90;;;;;;5081871;28;20044;-46
2023/12/21 08:05:31;;;;;;;9.15;2.95;;;9.30;99.90;;;;;;5088478;28;20124;-45
2023/12/21 08:07:56;;;;;;;7.90;2.88;;;9.20;99.90;;;;;;5088957;28;20055;-45
2023/12/21 08:10:22;;;;;;;9.50;2.92;;;9.30;99.90;;;;;;5074602;28;20036;-47
2023/12/21 08:12:47;;;;;;;7.25;3.30;;;9.30;99.90;;;;;;5084462;28;20405;-45
2023/12/21 08:15:14;;;;;;;11.02;3.42;;;9.30;99.90;;;;;;5082429;28;20044;-46
2023/12/21 08:17:40;;;;;;;6.38;3.05;;;9.20;99.90;;;;;;5085126;28;20132;-45
2023/12/21 08:20:07;;;;;;;8.18;3.17;;;9.30;99.90;;;;;;5086702;28;20059;-44
2023/12/21 08:22:33;;;;;;;6.88;3.30;;;9.30;99.90;;;;;;5085251;28;20127;-44
2023/12/21 08:24:58;;;;;;;5.57;3.50;;;9.30;99.90;;;;;;5085828;28;20040;-45
2023/12/21 08:27:25;;;;;;;7.55;3.60;;;9.40;99.90;;;;;;5086202;28;20051;-46
2023/12/21 08:29:51;;;;;;;6.32;3.55;;;9.30;99.90;;;;;;5086340;28;20036;-45
2023/12/21 08:32:18;;;;;;;7.78;3.30;;;9.30;99.90;;;;;;5082898;28;20177;-44
2023/12/21 08:34:44;;;;;;;8.27;3.45;;;9.30;99.90;;;;;;5085278;28;20048;-46
2023/12/21 08:37:10;;;;;;;6.25;2.90;;;9.30;99.90;;;;;;5086255;28;20043;-45
2023/12/21 08:39:36;;;;;;;8.30;3.00;;;9.40;99.90;;;;;;5086812;28;20043;-45
2023/12/21 08:42:02;;;;;;;7.75;2.63;;;9.40;99.90;;;;;;5088177;28;20096;-45
2023/12/21 08:44:28;;;;;;;5.13;2.40;;;9.30;99.90;;;;;;5083925;28;20047;-44
2023/12/21 08:46:54;;;;;;;6.25;2.17;;;9.40;99.90;;;;;;5087029;28;20046;-45
2023/12/21 08:49:19;;;;;;;6.57;2.30;;;9.40;99.90;;;;;;5084218;28;21301;-45
2023/12/21 08:51:45;;;;;;;5.78;2.00;;;9.40;99.90;;;;;;5083846;28;20118;-46
2023/12/21 08:54:11;;;;;;;5.35;2.42;;;9.50;99.90;;;;;;5069270;28;20382;-45
2023/12/21 08:56:44;;;;;;;5.22;2.60;;;9.50;99.90;;;;;;5089098;28;20040;-45
2023/12/21 08:59:09;;;;;;;8.05;2.50;;;9.50;99.90;;;;;;5083272;28;20052;-45
2023/12/21 09:01:35;;;;;;;4.10;2.33;;;9.50;99.90;;;;;;5082069;28;20105;-44
2023/12/21 09:04:02;;;;;;;8.75;2.72;;;9.50;99.90;;;;;;5083850;28;20128;-44
2023/12/21 09:06:28;;;;;;;5.50;2.60;;;9.50;99.90;;;;;;5087158;28;20472;-45
2023/12/21 09:08:53;;;;;;;7.68;2.63;;;9.50;99.90;;;;;;5085235;28;20056;-45
2023/12/21 09:11:19;;;;;;;7.13;2.78;;;9.50;99.90;;;;;;5086148;28;20045;-48
2023/12/21 09:13:45;;;;;;;10.10;2.85;;;9.60;99.90;;;;;;5085484;28;20040;-45
2023/12/21 09:16:10;;;;;;;9.98;3.20;;;9.60;99.90;;;;;;5087042;28;20047;-46
2023/12/21 09:18:36;;;;;;;11.52;3.17;;;9.60;99.90;;;;;;5089618;28;20424;-44
2023/12/21 09:21:03;;;;;;;11.88;3.08;;;9.60;99.90;;;;;;5093996;28;20043;-44
2023/12/21 09:23:29;;;;;;;10.90;3.03;;;9.70;99.90;;;;;;5092479;28;20052;-44
2023/12/21 09:25:55;;;;;;;9.63;3.00;;;9.70;99.90;;;;;;5092358;28;20090;-45
2023/12/21 09:28:21;;;;;;;8.63;2.70;;;9.70;99.90;;;;;;5091764;28;20453;-45
2023/12/21 09:30:46;;;;;;;10.43;3.13;;;9.70;99.90;;;;;;5087173;28;20098;-46
2023/12/21 09:33:12;;;;;;;10.18;2.92;;;9.70;99.90;;;;;;5088496;28;20070;-45
2023/12/21 09:35:38;;;;;;;10.68;2.83;;;9.70;99.90;;;;;;5091336;28;20048;-45
2023/12/21 09:38:03;;;;;;;12.63;3.00;;;9.70;99.90;;;;;;5091264;28;20105;-44
2023/12/21 09:40:29;;;;;;;12.90;2.78;;;9.70;99.90;;;;;;5091192;28;20512;-45
2023/12/21 09:42:58;;;;;;;10.52;2.53;;;9.70;99.90;;;;;;5088269;28;20040;-44
2023/12/21 09:45:25;;;;;;;8.07;2.15;;;9.70;99.90;;;;;;5091914;28;20048;-44
2023/12/21 09:47:52;;;;;;;9.82;1.98;;;9.80;99.90;;;;;;5075285;28;20125;-44
2023/12/21 09:50:19;;;;;;;7.85;2.10;;;9.70;99.90;;;;;;5093069;28;20044;-44
2023/12/21 09:52:46;;;;;;;9.38;2.20;;;9.80;99.90;;;;;;5092415;28;20035;-44
2023/12/21 09:55:15;;;;;;;5.85;2.22;;;9.80;99.90;;;;;;5093153;28;20040;-44
2023/12/21 09:57:41;;;;;;;5.22;1.63;;;9.80;99.90;;;;;;5090993;28;20530;-45
2023/12/21 10:00:07;;;;;;;8.32;1.90;;;9.80;99.90;;;;;;5091730;28;20087;-44
2023/12/21 10:02:33;;;;;;;11.50;2.30;;;9.90;99.90;;;;;;5089348;28;20494;-45
2023/12/21 10:04:59;;;;;;;14.52;2.47;;;9.90;99.90;;;;;;5090983;28;20149;-44
2023/12/21 10:07:26;;;;;;;11.45;2.42;;;9.90;99.90;;;;;;5091066;28;20410;-45
2023/12/21 10:09:51;;;;;;;11.50;2.42;;;9.90;99.90;;;;;;5091145;28;20109;-45
2023/12/21 10:12:17;;;;;;;13.18;2.80;;;9.90;99.90;;;;;;5092282;28;20519;-44
2023/12/21 10:14:43;;;;;;;12.52;2.72;;;10.00;99.90;;;;;;5091099;28;20036;-46
2023/12/21 10:17:12;;;;;;;13.50;2.33;;;10.00;99.90;;;;;;5091909;28;20138;-46
2023/12/21 10:19:44;;;;;;;17.38;2.53;;;10.00;99.90;;;;;;5089121;28;20093;-45
2023/12/21 10:22:09;;;;;;;13.77;2.55;;;10.00;99.90;;;;;;5088702;28;20185;-44
2023/12/21 10:24:37;;;;;;;14.98;2.80;;;10.10;99.90;;;;;;5094140;28;20074;-45
2023/12/21 10:27:03;;;;;;;12.98;2.75;;;10.10;99.90;;;;;;5090787;28;20472;-45
2023/12/21 10:29:29;;;;;;;12.85;2.42;;;10.10;99.90;;;;;;5091149;28;20036;-44
2023/12/21 10:31:56;;;;;;;14.73;2.53;;;10.10;99.90;;;;;;5090807;28;20059;-45
2023/12/21 10:34:22;;;;;;;13.07;2.45;;;10.00;99.90;;;;;;5091767;28;20074;-46
2023/12/21 10:36:48;;;;;;;13.10;2.47;;;10.10;99.90;;;;;;5085116;28;20040;-46
2023/12/21 10:39:15;;;;;;;12.55;2.40;;;10.00;99.90;;;;;;5091776;28;20370;-46
2023/12/21 10:41:44;;;;;;;10.07;1.90;;;10.00;99.90;;;;;;5088274;28;20032;-46
2023/12/21 10:44:12;;;;;;;10.25;2.20;;;10.10;99.90;;;;;;5086841;28;20040;-45
2023/12/21 10:46:38;;;;;;;10.43;2.35;;;10.10;99.90;;;;;;5087078;28;20043;-48
2023/12/21 10:49:06;;;;;;;11.45;2.38;;;10.10;99.90;;;;;;5089662;28;20105;-47
2023/12/21 10:51:37;;;;;;;15.73;2.65;;;10.20;99.90;;;;;;5091827;28;20056;-45
2023/12/21 10:54:10;;;;;;;13.57;2.40;;;10.30;99.90;;;;;;5087281;28;20085;-45
2023/12/21 10:56:38;;;;;;;13.45;2.25;;;10.40;99.90;;;;;;5090787;28;20048;-45
2023/12/21 10:59:06;;;;;;;8.40;2.38;;;10.60;99.90;;;;;;5091383;28;20032;-46
2023/12/21 11:01:33;;;;;;;;;;;10.60;99.90;;;;;;5091537;28;20063;-45
2023/12/21 11:04:00;;;;;;;10.05;2.28;;;10.50;99.90;;;;;;5079905;28;19924;-45
2023/12/21 11:06:27;;;;;;;10.70;2.15;;;10.50;99.90;;;;;;5084074;28;20047;-44
2023/12/21 11:08:54;;;;;;;11.27;2.10;;;10.40;99.90;;;;;;5077688;28;20131;-44
2023/12/21 11:11:22;;;;;;;12.27;2.30;;;10.40;99.90;;;;;;5078035;28;20059;-45
2023/12/21 11:13:56;;;;;;;11.30;2.33;;;10.40;99.90;;;;;;5074903;28;20474;-44
2023/12/21 11:16:31;;;;;;;11.80;2.65;;;10.40;99.90;;;;;;5079503;28;20523;-44
2023/12/21 11:18:59;;;;;;;5.47;1.92;;;10.40;99.90;;;;;;5081850;28;20494;-44
2023/12/21 11:21:26;;;;;;;10.40;1.90;;;10.50;99.90;;;;;;5083773;28;20040;-44
2023/12/21 11:23:52;;;;;;;8.85;1.80;;;10.50;99.90;;;;;;5088790;28;20036;-45
2023/12/21 11:26:25;;;;;;;7.00;1.55;;;10.50;99.90;;;;;;5089752;28;20036;-45
2023/12/21 11:28:51;;;;;;;6.57;1.52;;;10.50;99.90;;;;;;5092539;28;20047;-44
2023/12/21 11:31:18;;;;;;;6.65;1.73;;;10.50;99.90;;;;;;5090554;28;20036;-44
2023/12/21 11:33:44;;;;;;;10.70;1.58;;;10.50;99.90;;;;;;5092739;28;20504;-45
2023/12/21 11:36:10;;;;;;;8.27;1.75;;;10.60;99.90;;;;;;5092316;28;20394;-45
2023/12/21 11:38:48;;;;;;;12.05;1.88;;;10.70;99.90;;;;;;5090407;28;20043;-44
2023/12/21 11:41:16;;;;;;;9.02;2.20;;;10.70;99.90;;;;;;5084612;28;20452;-45
2023/12/21 11:44:14;;;;;;;14.02;2.20;;;10.70;99.90;;;;;;5093178;28;20033;-46
2023/12/21 11:46:41;;;;;;;16.20;2.53;;;10.80;99.90;;;;;;5058935;28;20140;-46
2023/12/21 11:49:10;;;;;;;11.75;2.90;;;10.80;99.90;;;;;;5091385;28;20067;-44
2023/12/21 11:51:47;;;;;;;10.77;2.33;;;10.70;99.90;;;;;;5092661;28;20066;-45
2023/12/21 11:54:18;;;;;;;15.20;2.60;;;10.70;99.90;;;;;;5073815;28;20346;-44
2023/12/21 11:56:44;;;;;;;16.45;2.78;;;10.70;99.90;;;;;;5090830;28;20042;-45
2023/12/21 11:59:10;;;;;;;14.77;2.88;;;10.70;99.90;;;;;;5090276;28;20055;-44
2023/12/21 12:01:37;;;;;;;14.07;2.50;;;10.70;99.90;;;;;;5092704;28;20059;-44
2023/12/21 12:04:05;;;;;;;13.50;3.10;;;10.70;99.90;;;;;;5090511;28;20043;-44
2023/12/21 12:06:32;;;;;;;19.90;2.85;;;10.70;99.90;;;;;;5087684;28;20051;-46
2023/12/21 12:08:58;;;;;;;18.60;3.58;;;10.70;99.90;;;;;;5091998;28;20040;-44
2023/12/21 12:11:24;;;;;;;15.45;2.67;;;10.80;99.90;;;;;;5088205;28;20405;-46
2023/12/21 12:13:50;;;;;;;19.23;3.42;;;10.80;99.90;;;;;;5087632;28;20480;-45
2023/12/21 12:16:17;;;;;;;13.75;2.85;;;10.90;99.90;;;;;;5091690;28;20177;-45
2023/12/21 12:18:43;;;;;;;12.33;2.47;;;10.90;99.90;;;;;;5086844;28;20042;-44
2023/12/21 12:21:10;;;;;;;15.75;3.00;;;10.90;99.90;;;;;;5093425;28;20378;-45
2023/12/21 12:23:35;;;;;;;13.55;2.78;;;10.90;99.90;;;;;;5089473;28;20044;-45
2023/12/21 12:26:02;;;;;;;13.70;2.63;;;10.90;99.90;;;;;;5089012;28;20363;-44
2023/12/21 12:28:28;;;;;;;15.32;3.17;;;10.80;99.90;;;;;;5069692;28;20063;-45
2023/12/21 12:30:54;;;;;;;9.48;2.03;;;10.80;99.90;;;;;;5095967;28;20050;-46
2023/12/21 12:33:20;;;;;;;12.27;2.30;;;10.80;99.90;;;;;;5089454;28;20052;-45
2023/12/21 12:35:48;;;;;;;12.82;2.58;;;10.70;99.90;;;;;;5086060;28;20101;-45
2023/12/21 12:38:16;;;;;;;15.45;2.72;;;10.70;99.90;;;;;;5073295;28;20036;-46
2023/12/21 12:40:41;;;;;;;14.13;3.13;;;10.80;99.90;;;;;;5092945;28;20390;-44